sensor_id;sensor_type;location;lat;lon;timestamp;P1;durP1;ratioP1;P2;durP2;ratioP2
56265;SDS011;42174;50.936;6.858;2023-07-22T00:00:19;6.18;;;3.45;;
56265;SDS011;42174;50.936;6.858;2023-07-22T00:03:05;4.13;;;2.15;;
56265;SDS011;42174;50.936;6.858;2023-07-22T00:06:01;5.80;;;3.03;;
56265;SDS011;42174;50.936;6.858;2023-07-22T00:08:45;3.90;;;2.75;;
56265;SDS011;42174;50.936;6.858;2023-07-22T00:11:29;4.38;;;3.30;;
56265;SDS011;42174;50.936;6.858;2023-07-22T00:14:13;5.60;;;1.98;;
56265;SDS011;42174;50.936;6.858;2023-07-22T00:16:57;6.32;;;2.47;;
56265;SDS011;42174;50.936;6.858;2023-07-22T00:19:41;3.15;;;1.90;;
56265;SDS011;42174;50.936;6.858;2023-07-22T00:22:25;5.50;;;2.70;;
56265;SDS011;42174;50.936;6.858;2023-07-22T00:25:11;2.65;;;1.77;;
56265;SDS011;42174;50.936;6.858;2023-07-22T00:27:55;5.38;;;2.63;;
56265;SDS011;42174;50.936;6.858;2023-07-22T00:30:41;1.95;;;1.67;;
56265;SDS011;42174;50.936;6.858;2023-07-22T00:33:25;3.83;;;1.77;;
56265;SDS011;42174;50.936;6.858;2023-07-22T00:36:10;2.65;;;2.00;;
56265;SDS011;42174;50.936;6.858;2023-07-22T00:38:54;4.38;;;1.88;;
56265;SDS011;42174;50.936;6.858;2023-07-22T00:41:38;2.15;;;1.38;;
56265;SDS011;42174;50.936;6.858;2023-07-22T00:44:22;2.80;;;2.25;;
56265;SDS011;42174;50.936;6.858;2023-07-22T00:47:06;4.28;;;1.90;;
56265;SDS011;42174;50.936;6.858;2023-07-22T00:49:50;3.00;;;1.95;;
56265;SDS011;42174;50.936;6.858;2023-07-22T00:52:34;5.03;;;2.38;;
56265;SDS011;42174;50.936;6.858;2023-07-22T00:55:18;3.75;;;2.80;;
56265;SDS011;42174;50.936;6.858;2023-07-22T00:58:02;2.95;;;2.00;;
56265;SDS011;42174;50.936;6.858;2023-07-22T01:00:46;4.10;;;3.83;;
56265;SDS011;42174;50.936;6.858;2023-07-22T01:03:30;2.67;;;1.58;;
56265;SDS011;42174;50.936;6.858;2023-07-22T01:06:14;8.43;;;1.92;;
56265;SDS011;42174;50.936;6.858;2023-07-22T01:08:59;5.18;;;2.00;;
56265;SDS011;42174;50.936;6.858;2023-07-22T01:11:43;3.45;;;2.10;;
56265;SDS011;42174;50.936;6.858;2023-07-22T01:14:27;2.78;;;2.22;;
56265;SDS011;42174;50.936;6.858;2023-07-22T01:17:11;1.92;;;1.63;;
56265;SDS011;42174;50.936;6.858;2023-07-22T01:19:55;5.32;;;2.80;;
56265;SDS011;42174;50.936;6.858;2023-07-22T01:22:39;3.33;;;1.95;;
56265;SDS011;42174;50.936;6.858;2023-07-22T01:25:25;5.20;;;3.28;;
56265;SDS011;42174;50.936;6.858;2023-07-22T01:28:09;3.50;;;2.10;;
56265;SDS011;42174;50.936;6.858;2023-07-22T01:30:54;6.13;;;2.22;;
56265;SDS011;42174;50.936;6.858;2023-07-22T01:33:38;5.43;;;3.42;;
56265;SDS011;42174;50.936;6.858;2023-07-22T01:36:22;5.05;;;2.22;;
56265;SDS011;42174;50.936;6.858;2023-07-22T01:39:07;4.20;;;2.00;;
56265;SDS011;42174;50.936;6.858;2023-07-22T01:41:50;5.43;;;3.47;;
56265;SDS011;42174;50.936;6.858;2023-07-22T01:44:34;3.05;;;1.77;;
56265;SDS011;42174;50.936;6.858;2023-07-22T01:47:18;4.35;;;2.55;;
56265;SDS011;42174;50.936;6.858;2023-07-22T01:50:03;3.67;;;2.40;;
56265;SDS011;42174;50.936;6.858;2023-07-22T01:52:47;4.05;;;2.17;;
56265;SDS011;42174;50.936;6.858;2023-07-22T01:55:31;7.07;;;3.05;;
56265;SDS011;42174;50.936;6.858;2023-07-22T01:58:16;3.33;;;2.78;;
56265;SDS011;42174;50.936;6.858;2023-07-22T02:01:00;4.57;;;2.38;;
56265;SDS011;42174;50.936;6.858;2023-07-22T02:03:44;4.82;;;3.15;;
56265;SDS011;42174;50.936;6.858;2023-07-22T02:06:29;3.10;;;2.25;;
56265;SDS011;42174;50.936;6.858;2023-07-22T02:09:13;4.72;;;2.70;;
56265;SDS011;42174;50.936;6.858;2023-07-22T02:11:57;7.95;;;3.85;;
56265;SDS011;42174;50.936;6.858;2023-07-22T02:14:41;4.13;;;2.75;;
56265;SDS011;42174;50.936;6.858;2023-07-22T02:17:25;5.22;;;3.42;;
56265;SDS011;42174;50.936;6.858;2023-07-22T02:20:09;2.67;;;2.47;;
56265;SDS011;42174;50.936;6.858;2023-07-22T02:22:52;6.95;;;3.45;;
56265;SDS011;42174;50.936;6.858;2023-07-22T02:25:36;3.15;;;2.42;;
56265;SDS011;42174;50.936;6.858;2023-07-22T02:28:21;3.58;;;2.55;;
56265;SDS011;42174;50.936;6.858;2023-07-22T02:31:05;2.80;;;1.80;;
56265;SDS011;42174;50.936;6.858;2023-07-22T02:33:50;3.58;;;2.38;;
56265;SDS011;42174;50.936;6.858;2023-07-22T02:36:34;3.78;;;2.00;;
56265;SDS011;42174;50.936;6.858;2023-07-22T02:39:18;4.68;;;3.10;;
56265;SDS011;42174;50.936;6.858;2023-07-22T02:42:02;5.13;;;2.70;;
56265;SDS011;42174;50.936;6.858;2023-07-22T02:44:46;6.28;;;2.17;;
56265;SDS011;42174;50.936;6.858;2023-07-22T02:47:32;4.13;;;3.25;;
56265;SDS011;42174;50.936;6.858;2023-07-22T02:50:16;6.28;;;2.78;;
56265;SDS011;42174;50.936;6.858;2023-07-22T02:53:00;5.25;;;3.00;;
56265;SDS011;42174;50.936;6.858;2023-07-22T02:55:44;4.32;;;3.03;;
56265;SDS011;42174;50.936;6.858;2023-07-22T02:58:29;4.78;;;2.28;;
56265;SDS011;42174;50.936;6.858;2023-07-22T03:01:13;5.18;;;3.25;;
56265;SDS011;42174;50.936;6.858;2023-07-22T03:03:57;5.35;;;2.95;;
56265;SDS011;42174;50.936;6.858;2023-07-22T03:06:41;4.38;;;2.83;;
56265;SDS011;42174;50.936;6.858;2023-07-22T03:09:25;3.95;;;2.75;;
56265;SDS011;42174;50.936;6.858;2023-07-22T03:12:09;4.28;;;3.03;;
56265;SDS011;42174;50.936;6.858;2023-07-22T03:14:53;3.40;;;2.28;;
56265;SDS011;42174;50.936;6.858;2023-07-22T03:17:38;6.43;;;5.25;;
56265;SDS011;42174;50.936;6.858;2023-07-22T03:20:22;3.85;;;2.75;;
56265;SDS011;42174;50.936;6.858;2023-07-22T03:23:07;5.25;;;3.35;;
56265;SDS011;42174;50.936;6.858;2023-07-22T03:25:51;3.28;;;2.45;;
56265;SDS011;42174;50.936;6.858;2023-07-22T03:28:35;8.00;;;3.50;;
56265;SDS011;42174;50.936;6.858;2023-07-22T03:31:19;3.30;;;3.03;;
56265;SDS011;42174;50.936;6.858;2023-07-22T03:34:03;4.00;;;3.00;;
56265;SDS011;42174;50.936;6.858;2023-07-22T03:36:47;3.08;;;2.70;;
56265;SDS011;42174;50.936;6.858;2023-07-22T03:39:31;4.90;;;3.83;;
56265;SDS011;42174;50.936;6.858;2023-07-22T03:42:15;4.15;;;3.13;;
56265;SDS011;42174;50.936;6.858;2023-07-22T03:44:59;8.20;;;2.53;;
56265;SDS011;42174;50.936;6.858;2023-07-22T03:47:50;4.28;;;2.83;;
56265;SDS011;42174;50.936;6.858;2023-07-22T03:50:35;5.32;;;3.35;;
56265;SDS011;42174;50.936;6.858;2023-07-22T03:53:19;2.85;;;1.88;;
56265;SDS011;42174;50.936;6.858;2023-07-22T03:56:03;7.95;;;3.38;;
56265;SDS011;42174;50.936;6.858;2023-07-22T03:58:47;4.32;;;2.03;;
56265;SDS011;42174;50.936;6.858;2023-07-22T04:01:31;5.75;;;2.55;;
56265;SDS011;42174;50.936;6.858;2023-07-22T04:04:15;4.70;;;2.78;;
56265;SDS011;42174;50.936;6.858;2023-07-22T04:06:59;9.15;;;3.85;;
56265;SDS011;42174;50.936;6.858;2023-07-22T04:09:43;3.95;;;2.17;;
56265;SDS011;42174;50.936;6.858;2023-07-22T04:12:28;8.60;;;3.35;;
56265;SDS011;42174;50.936;6.858;2023-07-22T04:15:12;5.13;;;2.72;;
56265;SDS011;42174;50.936;6.858;2023-07-22T04:17:56;7.05;;;3.67;;
56265;SDS011;42174;50.936;6.858;2023-07-22T04:20:40;7.93;;;4.07;;
56265;SDS011;42174;50.936;6.858;2023-07-22T04:23:25;6.10;;;5.55;;
56265;SDS011;42174;50.936;6.858;2023-07-22T04:26:09;6.95;;;4.10;;
56265;SDS011;42174;50.936;6.858;2023-07-22T04:28:53;6.50;;;3.38;;
56265;SDS011;42174;50.936;6.858;2023-07-22T04:31:37;5.57;;;4.18;;
56265;SDS011;42174;50.936;6.858;2023-07-22T04:34:22;5.22;;;3.60;;
56265;SDS011;42174;50.936;6.858;2023-07-22T04:37:06;4.97;;;3.22;;
56265;SDS011;42174;50.936;6.858;2023-07-22T04:39:50;4.45;;;3.75;;
56265;SDS011;42174;50.936;6.858;2023-07-22T04:42:34;7.40;;;5.13;;
56265;SDS011;42174;50.936;6.858;2023-07-22T04:45:18;6.28;;;4.32;;
56265;SDS011;42174;50.936;6.858;2023-07-22T04:48:02;7.65;;;3.70;;
56265;SDS011;42174;50.936;6.858;2023-07-22T04:50:46;5.72;;;3.67;;
56265;SDS011;42174;50.936;6.858;2023-07-22T04:53:30;5.15;;;4.65;;
56265;SDS011;42174;50.936;6.858;2023-07-22T04:56:14;4.75;;;3.95;;
56265;SDS011;42174;50.936;6.858;2023-07-22T04:58:58;5.05;;;3.78;;
56265;SDS011;42174;50.936;6.858;2023-07-22T05:01:42;4.88;;;4.20;;
56265;SDS011;42174;50.936;6.858;2023-07-22T05:04:27;7.68;;;3.03;;
56265;SDS011;42174;50.936;6.858;2023-07-22T05:07:11;3.80;;;3.10;;
56265;SDS011;42174;50.936;6.858;2023-07-22T05:09:55;4.10;;;3.17;;
56265;SDS011;42174;50.936;6.858;2023-07-22T05:12:39;6.28;;;3.92;;
56265;SDS011;42174;50.936;6.858;2023-07-22T05:15:23;5.13;;;3.40;;
56265;SDS011;42174;50.936;6.858;2023-07-22T05:18:07;6.45;;;4.47;;
56265;SDS011;42174;50.936;6.858;2023-07-22T05:20:51;4.05;;;2.58;;
56265;SDS011;42174;50.936;6.858;2023-07-22T05:23:35;4.95;;;2.83;;
56265;SDS011;42174;50.936;6.858;2023-07-22T05:26:19;7.50;;;2.92;;
56265;SDS011;42174;50.936;6.858;2023-07-22T05:29:03;5.40;;;3.28;;
56265;SDS011;42174;50.936;6.858;2023-07-22T05:31:47;5.57;;;3.50;;
56265;SDS011;42174;50.936;6.858;2023-07-22T05:34:31;5.00;;;4.50;;
56265;SDS011;42174;50.936;6.858;2023-07-22T05:37:15;7.22;;;3.75;;
56265;SDS011;42174;50.936;6.858;2023-07-22T05:39:59;4.93;;;3.55;;
56265;SDS011;42174;50.936;6.858;2023-07-22T05:42:44;2.72;;;2.00;;
56265;SDS011;42174;50.936;6.858;2023-07-22T05:45:28;7.45;;;3.83;;
56265;SDS011;42174;50.936;6.858;2023-07-22T05:48:12;6.18;;;3.08;;
56265;SDS011;42174;50.936;6.858;2023-07-22T05:50:56;4.55;;;3.25;;
56265;SDS011;42174;50.936;6.858;2023-07-22T05:53:40;4.93;;;3.25;;
56265;SDS011;42174;50.936;6.858;2023-07-22T05:56:24;7.30;;;4.13;;
56265;SDS011;42174;50.936;6.858;2023-07-22T05:59:08;4.95;;;3.28;;
56265;SDS011;42174;50.936;6.858;2023-07-22T06:01:52;3.28;;;2.58;;
56265;SDS011;42174;50.936;6.858;2023-07-22T06:04:36;5.60;;;3.47;;
56265;SDS011;42174;50.936;6.858;2023-07-22T06:07:20;4.70;;;2.75;;
56265;SDS011;42174;50.936;6.858;2023-07-22T06:10:04;8.02;;;3.72;;
56265;SDS011;42174;50.936;6.858;2023-07-22T06:12:48;6.40;;;2.67;;
56265;SDS011;42174;50.936;6.858;2023-07-22T06:15:32;4.60;;;3.30;;
56265;SDS011;42174;50.936;6.858;2023-07-22T06:18:16;4.35;;;3.10;;
56265;SDS011;42174;50.936;6.858;2023-07-22T06:21:00;3.90;;;2.58;;
56265;SDS011;42174;50.936;6.858;2023-07-22T06:23:44;5.85;;;3.35;;
56265;SDS011;42174;50.936;6.858;2023-07-22T06:26:28;7.22;;;4.05;;
56265;SDS011;42174;50.936;6.858;2023-07-22T06:29:12;4.40;;;3.67;;
56265;SDS011;42174;50.936;6.858;2023-07-22T06:31:56;7.43;;;4.35;;
56265;SDS011;42174;50.936;6.858;2023-07-22T06:34:40;6.90;;;4.30;;
56265;SDS011;42174;50.936;6.858;2023-07-22T06:37:24;3.42;;;2.92;;
56265;SDS011;42174;50.936;6.858;2023-07-22T06:40:10;4.93;;;2.72;;
56265;SDS011;42174;50.936;6.858;2023-07-22T06:42:53;7.88;;;7.15;;
56265;SDS011;42174;50.936;6.858;2023-07-22T06:45:37;8.95;;;4.75;;
56265;SDS011;42174;50.936;6.858;2023-07-22T06:48:21;6.55;;;5.68;;
56265;SDS011;42174;50.936;6.858;2023-07-22T06:51:06;6.57;;;4.18;;
56265;SDS011;42174;50.936;6.858;2023-07-22T06:53:50;5.68;;;4.28;;
56265;SDS011;42174;50.936;6.858;2023-07-22T06:56:34;4.85;;;3.53;;
56265;SDS011;42174;50.936;6.858;2023-07-22T06:59:18;6.40;;;5.70;;
56265;SDS011;42174;50.936;6.858;2023-07-22T07:02:02;7.63;;;4.10;;
56265;SDS011;42174;50.936;6.858;2023-07-22T07:04:46;4.13;;;2.78;;
56265;SDS011;42174;50.936;6.858;2023-07-22T07:07:30;7.15;;;3.85;;
56265;SDS011;42174;50.936;6.858;2023-07-22T07:10:14;5.53;;;2.80;;
56265;SDS011;42174;50.936;6.858;2023-07-22T07:12:59;3.90;;;2.55;;
56265;SDS011;42174;50.936;6.858;2023-07-22T07:15:46;6.07;;;3.00;;
56265;SDS011;42174;50.936;6.858;2023-07-22T07:18:31;4.22;;;2.20;;
56265;SDS011;42174;50.936;6.858;2023-07-22T07:21:15;5.13;;;2.47;;
56265;SDS011;42174;50.936;6.858;2023-07-22T07:23:59;4.75;;;3.38;;
56265;SDS011;42174;50.936;6.858;2023-07-22T07:26:43;3.92;;;3.45;;
56265;SDS011;42174;50.936;6.858;2023-07-22T07:29:28;5.82;;;2.95;;
56265;SDS011;42174;50.936;6.858;2023-07-22T07:32:13;4.63;;;2.60;;
56265;SDS011;42174;50.936;6.858;2023-07-22T07:34:57;6.05;;;3.25;;
56265;SDS011;42174;50.936;6.858;2023-07-22T07:37:41;5.90;;;4.30;;
56265;SDS011;42174;50.936;6.858;2023-07-22T07:40:25;6.75;;;4.15;;
56265;SDS011;42174;50.936;6.858;2023-07-22T07:43:10;6.28;;;3.90;;
56265;SDS011;42174;50.936;6.858;2023-07-22T07:48:58;5.85;;;2.28;;
56265;SDS011;42174;50.936;6.858;2023-07-22T07:51:44;6.97;;;3.83;;
56265;SDS011;42174;50.936;6.858;2023-07-22T07:54:28;3.45;;;2.38;;
56265;SDS011;42174;50.936;6.858;2023-07-22T07:57:12;4.35;;;3.05;;
56265;SDS011;42174;50.936;6.858;2023-07-22T07:59:56;2.10;;;1.90;;
56265;SDS011;42174;50.936;6.858;2023-07-22T08:02:40;4.57;;;2.35;;
56265;SDS011;42174;50.936;6.858;2023-07-22T08:05:24;4.20;;;3.15;;
56265;SDS011;42174;50.936;6.858;2023-07-22T08:08:08;4.45;;;2.90;;
56265;SDS011;42174;50.936;6.858;2023-07-22T08:10:58;6.13;;;4.18;;
56265;SDS011;42174;50.936;6.858;2023-07-22T08:13:43;5.25;;;3.20;;
56265;SDS011;42174;50.936;6.858;2023-07-22T08:16:27;5.57;;;2.15;;
56265;SDS011;42174;50.936;6.858;2023-07-22T08:19:12;4.45;;;3.65;;
56265;SDS011;42174;50.936;6.858;2023-07-22T08:21:56;4.25;;;2.70;;
56265;SDS011;42174;50.936;6.858;2023-07-22T08:24:40;5.72;;;3.25;;
56265;SDS011;42174;50.936;6.858;2023-07-22T08:27:24;5.07;;;2.40;;
56265;SDS011;42174;50.936;6.858;2023-07-22T08:30:08;3.08;;;2.58;;
56265;SDS011;42174;50.936;6.858;2023-07-22T08:32:51;2.90;;;1.98;;
56265;SDS011;42174;50.936;6.858;2023-07-22T08:35:35;3.25;;;2.30;;
56265;SDS011;42174;50.936;6.858;2023-07-22T08:38:19;1.80;;;1.70;;
56265;SDS011;42174;50.936;6.858;2023-07-22T08:41:03;4.30;;;2.75;;
56265;SDS011;42174;50.936;6.858;2023-07-22T08:43:47;4.38;;;2.08;;
56265;SDS011;42174;50.936;6.858;2023-07-22T08:46:34;8.13;;;2.30;;
56265;SDS011;42174;50.936;6.858;2023-07-22T08:49:19;4.03;;;2.22;;
56265;SDS011;42174;50.936;6.858;2023-07-22T08:52:03;3.33;;;2.05;;
56265;SDS011;42174;50.936;6.858;2023-07-22T08:54:47;1.10;;;0.95;;
56265;SDS011;42174;50.936;6.858;2023-07-22T08:57:32;3.03;;;2.63;;
56265;SDS011;42174;50.936;6.858;2023-07-22T09:00:17;3.05;;;1.55;;
56265;SDS011;42174;50.936;6.858;2023-07-22T09:03:01;1.92;;;1.30;;
56265;SDS011;42174;50.936;6.858;2023-07-22T09:05:45;3.53;;;2.42;;
56265;SDS011;42174;50.936;6.858;2023-07-22T09:08:30;4.78;;;3.67;;
56265;SDS011;42174;50.936;6.858;2023-07-22T09:11:14;5.25;;;2.00;;
56265;SDS011;42174;50.936;6.858;2023-07-22T09:13:58;4.95;;;3.05;;
56265;SDS011;42174;50.936;6.858;2023-07-22T09:16:44;2.78;;;1.60;;
56265;SDS011;42174;50.936;6.858;2023-07-22T09:19:29;5.70;;;1.98;;
56265;SDS011;42174;50.936;6.858;2023-07-22T09:22:18;2.85;;;1.63;;
56265;SDS011;42174;50.936;6.858;2023-07-22T09:25:16;4.70;;;2.42;;
56265;SDS011;42174;50.936;6.858;2023-07-22T09:28:00;3.72;;;3.17;;
56265;SDS011;42174;50.936;6.858;2023-07-22T09:30:45;2.78;;;2.13;;
56265;SDS011;42174;50.936;6.858;2023-07-22T09:33:28;6.07;;;2.88;;
56265;SDS011;42174;50.936;6.858;2023-07-22T09:36:13;3.38;;;2.35;;
56265;SDS011;42174;50.936;6.858;2023-07-22T09:39:00;4.00;;;2.20;;
56265;SDS011;42174;50.936;6.858;2023-07-22T09:41:46;2.05;;;1.35;;
56265;SDS011;42174;50.936;6.858;2023-07-22T09:44:30;2.42;;;1.65;;
56265;SDS011;42174;50.936;6.858;2023-07-22T09:47:15;2.42;;;1.48;;
56265;SDS011;42174;50.936;6.858;2023-07-22T09:49:59;2.17;;;1.10;;
56265;SDS011;42174;50.936;6.858;2023-07-22T09:52:44;1.45;;;0.77;;
56265;SDS011;42174;50.936;6.858;2023-07-22T09:55:29;1.05;;;1.05;;
56265;SDS011;42174;50.936;6.858;2023-07-22T09:58:13;0.85;;;0.45;;
56265;SDS011;42174;50.936;6.858;2023-07-22T10:00:58;2.22;;;0.98;;
56265;SDS011;42174;50.936;6.858;2023-07-22T10:03:42;0.77;;;0.73;;
56265;SDS011;42174;50.936;6.858;2023-07-22T10:06:27;1.02;;;0.70;;
56265;SDS011;42174;50.936;6.858;2023-07-22T10:09:11;1.45;;;0.75;;
56265;SDS011;42174;50.936;6.858;2023-07-22T10:11:55;6.43;;;1.30;;
56265;SDS011;42174;50.936;6.858;2023-07-22T10:14:39;1.50;;;0.88;;
56265;SDS011;42174;50.936;6.858;2023-07-22T10:17:23;1.95;;;1.00;;
56265;SDS011;42174;50.936;6.858;2023-07-22T10:20:08;3.28;;;1.20;;
56265;SDS011;42174;50.936;6.858;2023-07-22T10:22:54;2.22;;;1.17;;
56265;SDS011;42174;50.936;6.858;2023-07-22T10:25:37;1.88;;;1.20;;
56265;SDS011;42174;50.936;6.858;2023-07-22T10:28:22;1.67;;;1.20;;
56265;SDS011;42174;50.936;6.858;2023-07-22T10:31:07;1.15;;;0.55;;
56265;SDS011;42174;50.936;6.858;2023-07-22T10:33:52;1.95;;;0.80;;
56265;SDS011;42174;50.936;6.858;2023-07-22T10:36:36;0.85;;;0.85;;
56265;SDS011;42174;50.936;6.858;2023-07-22T10:39:24;4.05;;;1.13;;
56265;SDS011;42174;50.936;6.858;2023-07-22T10:42:09;0.80;;;0.80;;
56265;SDS011;42174;50.936;6.858;2023-07-22T10:45:22;1.50;;;0.75;;
56265;SDS011;42174;50.936;6.858;2023-07-22T10:48:07;1.75;;;1.23;;
56265;SDS011;42174;50.936;6.858;2023-07-22T10:50:52;1.02;;;0.40;;
56265;SDS011;42174;50.936;6.858;2023-07-22T10:53:54;2.75;;;1.08;;
56265;SDS011;42174;50.936;6.858;2023-07-22T10:56:40;1.15;;;0.98;;
56265;SDS011;42174;50.936;6.858;2023-07-22T10:59:27;2.47;;;1.08;;
56265;SDS011;42174;50.936;6.858;2023-07-22T11:02:22;1.55;;;0.57;;
56265;SDS011;42174;50.936;6.858;2023-07-22T11:05:06;1.02;;;0.82;;
56265;SDS011;42174;50.936;6.858;2023-07-22T11:07:50;1.50;;;1.13;;
56265;SDS011;42174;50.936;6.858;2023-07-22T11:10:35;1.95;;;1.05;;
56265;SDS011;42174;50.936;6.858;2023-07-22T11:13:26;1.95;;;1.10;;
56265;SDS011;42174;50.936;6.858;2023-07-22T11:16:10;1.00;;;0.90;;
56265;SDS011;42174;50.936;6.858;2023-07-22T11:18:55;1.75;;;0.93;;
56265;SDS011;42174;50.936;6.858;2023-07-22T11:21:38;1.75;;;1.10;;
56265;SDS011;42174;50.936;6.858;2023-07-22T11:24:23;1.35;;;0.90;;
56265;SDS011;42174;50.936;6.858;2023-07-22T11:27:08;2.28;;;1.35;;
56265;SDS011;42174;50.936;6.858;2023-07-22T11:29:57;0.85;;;0.77;;
56265;SDS011;42174;50.936;6.858;2023-07-22T11:32:42;2.03;;;1.23;;
56265;SDS011;42174;50.936;6.858;2023-07-22T11:35:27;1.42;;;0.85;;
56265;SDS011;42174;50.936;6.858;2023-07-22T11:38:14;1.90;;;1.48;;
56265;SDS011;42174;50.936;6.858;2023-07-22T11:40:58;1.02;;;0.68;;
56265;SDS011;42174;50.936;6.858;2023-07-22T11:43:42;2.72;;;1.17;;
56265;SDS011;42174;50.936;6.858;2023-07-22T11:46:26;1.42;;;0.98;;
56265;SDS011;42174;50.936;6.858;2023-07-22T11:49:10;1.13;;;0.98;;
56265;SDS011;42174;50.936;6.858;2023-07-22T11:54:44;1.90;;;1.10;;
56265;SDS011;42174;50.936;6.858;2023-07-22T11:57:28;1.05;;;0.65;;
56265;SDS011;42174;50.936;6.858;2023-07-22T12:00:12;1.17;;;0.73;;
56265;SDS011;42174;50.936;6.858;2023-07-22T12:02:56;1.88;;;1.23;;
56265;SDS011;42174;50.936;6.858;2023-07-22T12:05:41;0.93;;;0.52;;
56265;SDS011;42174;50.936;6.858;2023-07-22T12:08:24;1.45;;;0.90;;
56265;SDS011;42174;50.936;6.858;2023-07-22T12:11:15;1.42;;;1.30;;
56265;SDS011;42174;50.936;6.858;2023-07-22T12:14:11;1.63;;;0.70;;
56265;SDS011;42174;50.936;6.858;2023-07-22T12:16:55;1.98;;;0.93;;
56265;SDS011;42174;50.936;6.858;2023-07-22T12:22:27;2.55;;;1.13;;
56265;SDS011;42174;50.936;6.858;2023-07-22T12:25:11;1.27;;;0.95;;
56265;SDS011;42174;50.936;6.858;2023-07-22T12:27:55;1.15;;;0.75;;
56265;SDS011;42174;50.936;6.858;2023-07-22T12:30:39;0.80;;;0.77;;
56265;SDS011;42174;50.936;6.858;2023-07-22T12:33:24;0.75;;;0.75;;
56265;SDS011;42174;50.936;6.858;2023-07-22T12:36:08;2.85;;;1.60;;
56265;SDS011;42174;50.936;6.858;2023-07-22T12:38:51;1.15;;;1.05;;
56265;SDS011;42174;50.936;6.858;2023-07-22T12:41:35;3.30;;;0.95;;
56265;SDS011;42174;50.936;6.858;2023-07-22T12:44:19;3.63;;;0.93;;
56265;SDS011;42174;50.936;6.858;2023-07-22T12:47:04;4.68;;;1.88;;
56265;SDS011;42174;50.936;6.858;2023-07-22T12:49:47;1.05;;;0.63;;
56265;SDS011;42174;50.936;6.858;2023-07-22T12:52:31;0.73;;;0.63;;
56265;SDS011;42174;50.936;6.858;2023-07-22T12:55:15;0.75;;;0.60;;
56265;SDS011;42174;50.936;6.858;2023-07-22T12:57:59;1.50;;;0.93;;
56265;SDS011;42174;50.936;6.858;2023-07-22T13:00:43;2.83;;;1.27;;
56265;SDS011;42174;50.936;6.858;2023-07-22T13:03:27;2.88;;;0.73;;
56265;SDS011;42174;50.936;6.858;2023-07-22T13:06:11;0.90;;;0.80;;
56265;SDS011;42174;50.936;6.858;2023-07-22T13:08:55;1.40;;;0.85;;
56265;SDS011;42174;50.936;6.858;2023-07-22T13:11:39;1.20;;;0.90;;
56265;SDS011;42174;50.936;6.858;2023-07-22T13:14:23;2.20;;;0.98;;
56265;SDS011;42174;50.936;6.858;2023-07-22T13:17:07;1.60;;;0.88;;
56265;SDS011;42174;50.936;6.858;2023-07-22T13:19:51;1.52;;;1.30;;
56265;SDS011;42174;50.936;6.858;2023-07-22T13:22:35;2.25;;;0.55;;
56265;SDS011;42174;50.936;6.858;2023-07-22T13:25:19;2.15;;;1.02;;
56265;SDS011;42174;50.936;6.858;2023-07-22T13:28:03;0.98;;;0.88;;
56265;SDS011;42174;50.936;6.858;2023-07-22T13:30:46;1.17;;;0.88;;
56265;SDS011;42174;50.936;6.858;2023-07-22T13:33:31;3.03;;;1.05;;
56265;SDS011;42174;50.936;6.858;2023-07-22T13:36:14;3.00;;;2.00;;
56265;SDS011;42174;50.936;6.858;2023-07-22T13:38:58;1.20;;;0.80;;
56265;SDS011;42174;50.936;6.858;2023-07-22T13:41:42;1.75;;;0.70;;
56265;SDS011;42174;50.936;6.858;2023-07-22T13:44:26;1.60;;;0.95;;
56265;SDS011;42174;50.936;6.858;2023-07-22T13:47:10;2.20;;;1.52;;
56265;SDS011;42174;50.936;6.858;2023-07-22T13:49:54;0.93;;;0.50;;
56265;SDS011;42174;50.936;6.858;2023-07-22T13:52:38;1.63;;;1.00;;
56265;SDS011;42174;50.936;6.858;2023-07-22T13:55:23;2.00;;;0.90;;
56265;SDS011;42174;50.936;6.858;2023-07-22T13:58:08;2.08;;;1.42;;
56265;SDS011;42174;50.936;6.858;2023-07-22T14:00:52;1.77;;;1.25;;
56265;SDS011;42174;50.936;6.858;2023-07-22T14:03:36;1.77;;;0.95;;
56265;SDS011;42174;50.936;6.858;2023-07-22T14:06:20;2.00;;;1.52;;
56265;SDS011;42174;50.936;6.858;2023-07-22T14:09:04;2.80;;;1.60;;
56265;SDS011;42174;50.936;6.858;2023-07-22T14:11:49;1.77;;;0.82;;
56265;SDS011;42174;50.936;6.858;2023-07-22T14:14:32;1.42;;;1.05;;
56265;SDS011;42174;50.936;6.858;2023-07-22T14:17:16;3.10;;;1.25;;
56265;SDS011;42174;50.936;6.858;2023-07-22T14:20:00;2.60;;;1.25;;
56265;SDS011;42174;50.936;6.858;2023-07-22T14:22:44;1.80;;;1.30;;
56265;SDS011;42174;50.936;6.858;2023-07-22T14:25:29;2.08;;;1.88;;
56265;SDS011;42174;50.936;6.858;2023-07-22T14:28:13;2.53;;;1.40;;
56265;SDS011;42174;50.936;6.858;2023-07-22T14:30:57;1.98;;;1.40;;
56265;SDS011;42174;50.936;6.858;2023-07-22T14:33:41;4.32;;;1.35;;
56265;SDS011;42174;50.936;6.858;2023-07-22T14:36:25;3.67;;;1.17;;
56265;SDS011;42174;50.936;6.858;2023-07-22T14:39:10;2.42;;;1.27;;
56265;SDS011;42174;50.936;6.858;2023-07-22T14:41:54;6.15;;;2.47;;
56265;SDS011;42174;50.936;6.858;2023-07-22T14:44:38;3.50;;;1.38;;
56265;SDS011;42174;50.936;6.858;2023-07-22T14:47:22;2.22;;;1.02;;
56265;SDS011;42174;50.936;6.858;2023-07-22T14:50:06;2.25;;;1.08;;
56265;SDS011;42174;50.936;6.858;2023-07-22T14:52:50;1.25;;;0.80;;
56265;SDS011;42174;50.936;6.858;2023-07-22T14:55:34;1.30;;;0.75;;
56265;SDS011;42174;50.936;6.858;2023-07-22T14:58:18;2.28;;;0.82;;
56265;SDS011;42174;50.936;6.858;2023-07-22T15:01:02;4.22;;;1.23;;
56265;SDS011;42174;50.936;6.858;2023-07-22T15:03:46;1.90;;;1.58;;
56265;SDS011;42174;50.936;6.858;2023-07-22T15:06:29;2.90;;;1.63;;
56265;SDS011;42174;50.936;6.858;2023-07-22T15:09:14;1.95;;;1.30;;
56265;SDS011;42174;50.936;6.858;2023-07-22T15:11:58;4.50;;;1.38;;
56265;SDS011;42174;50.936;6.858;2023-07-22T15:14:43;8.18;;;1.33;;
56265;SDS011;42174;50.936;6.858;2023-07-22T15:17:27;3.17;;;0.90;;
56265;SDS011;42174;50.936;6.858;2023-07-22T15:20:14;3.13;;;1.17;;
56265;SDS011;42174;50.936;6.858;2023-07-22T15:22:58;1.95;;;1.15;;
56265;SDS011;42174;50.936;6.858;2023-07-22T15:25:41;2.15;;;1.27;;
56265;SDS011;42174;50.936;6.858;2023-07-22T15:28:25;2.67;;;1.38;;
56265;SDS011;42174;50.936;6.858;2023-07-22T15:31:09;2.00;;;1.83;;
56265;SDS011;42174;50.936;6.858;2023-07-22T15:33:53;3.33;;;1.75;;
56265;SDS011;42174;50.936;6.858;2023-07-22T15:36:38;3.10;;;0.90;;
56265;SDS011;42174;50.936;6.858;2023-07-22T15:39:21;0.90;;;0.90;;
56265;SDS011;42174;50.936;6.858;2023-07-22T15:42:05;5.18;;;1.23;;
56265;SDS011;42174;50.936;6.858;2023-07-22T15:44:49;1.55;;;1.10;;
56265;SDS011;42174;50.936;6.858;2023-07-22T15:47:33;10.55;;;1.75;;
56265;SDS011;42174;50.936;6.858;2023-07-22T15:50:17;1.33;;;0.70;;
56265;SDS011;42174;50.936;6.858;2023-07-22T15:53:01;1.35;;;1.05;;
56265;SDS011;42174;50.936;6.858;2023-07-22T15:55:45;3.33;;;1.50;;
56265;SDS011;42174;50.936;6.858;2023-07-22T15:58:29;2.10;;;1.48;;
56265;SDS011;42174;50.936;6.858;2023-07-22T16:01:13;4.07;;;1.40;;
56265;SDS011;42174;50.936;6.858;2023-07-22T16:03:57;2.83;;;1.55;;
56265;SDS011;42174;50.936;6.858;2023-07-22T16:06:41;2.13;;;1.05;;
56265;SDS011;42174;50.936;6.858;2023-07-22T16:09:25;1.83;;;1.10;;
56265;SDS011;42174;50.936;6.858;2023-07-22T16:12:09;2.88;;;1.70;;
56265;SDS011;42174;50.936;6.858;2023-07-22T16:14:54;1.38;;;0.95;;
56265;SDS011;42174;50.936;6.858;2023-07-22T16:17:38;2.25;;;1.02;;
56265;SDS011;42174;50.936;6.858;2023-07-22T16:20:22;2.00;;;1.38;;
56265;SDS011;42174;50.936;6.858;2023-07-22T16:23:06;2.45;;;1.48;;
56265;SDS011;42174;50.936;6.858;2023-07-22T16:25:50;1.80;;;1.48;;
56265;SDS011;42174;50.936;6.858;2023-07-22T16:28:34;3.45;;;1.67;;
56265;SDS011;42174;50.936;6.858;2023-07-22T16:31:18;2.10;;;1.42;;
56265;SDS011;42174;50.936;6.858;2023-07-22T16:34:02;3.78;;;1.85;;
56265;SDS011;42174;50.936;6.858;2023-07-22T16:36:47;3.33;;;1.25;;
56265;SDS011;42174;50.936;6.858;2023-07-22T16:39:31;3.92;;;2.67;;